createdAt,value
2022-11-23T00:01:35.935Z,89.81
2022-11-23T00:04:12.627Z,89.48
2022-11-23T00:06:41.207Z,89.37
2022-11-23T00:09:11.646Z,89.47
2022-11-23T00:11:39.433Z,89.42
2022-11-23T00:14:07.496Z,89.10
2022-11-23T00:16:50.657Z,89.18
2022-11-23T00:19:18.623Z,89.65
2022-11-23T00:21:46.329Z,90.13
2022-11-23T00:24:14.336Z,90.10
2022-11-23T00:26:42.045Z,90.46
2022-11-23T00:29:10.087Z,90.43
2022-11-23T00:31:38.423Z,90.51
2022-11-23T00:34:08.228Z,89.50
2022-11-23T00:36:35.876Z,90.14
2022-11-23T00:39:03.997Z,89.45
2022-11-23T00:41:31.651Z,89.86
2022-11-23T00:43:59.669Z,89.64
2022-11-23T00:46:28.753Z,90.04
2022-11-23T00:48:58.916Z,90.10
2022-11-23T00:51:32.694Z,90.30
2022-11-23T00:54:01.566Z,90.11
2022-11-23T00:56:30.397Z,89.72
2022-11-23T00:59:00.457Z,90.28
2022-11-23T01:01:33.757Z,90.23
2022-11-23T01:04:03.954Z,90.27
2022-11-23T01:06:38.199Z,90.16
2022-11-23T01:09:12.116Z,90.25
2022-11-23T01:11:39.954Z,90.54
2022-11-23T01:14:07.888Z,90.31
2022-11-23T01:16:38.420Z,90.43
2022-11-23T01:19:11.714Z,90.49
2022-11-23T01:21:39.882Z,90.34
2022-11-23T01:24:26.456Z,90.55
2022-11-23T01:26:55.465Z,90.65
2022-11-23T01:29:24.648Z,90.64
2022-11-23T01:31:52.318Z,90.48
2022-11-23T01:34:20.304Z,90.07
2022-11-23T01:36:48.096Z,90.32
2022-11-23T01:39:16.010Z,90.34
2022-11-23T01:41:45.486Z,90.52
2022-11-23T01:44:34.887Z,90.32
2022-11-23T01:47:08.655Z,90.36
2022-11-23T01:49:42.937Z,90.59
2022-11-23T01:52:12.857Z,90.56
2022-11-23T01:54:54.927Z,90.76
2022-11-23T01:57:34.435Z,91.30
2022-11-23T02:00:02.879Z,90.77
2022-11-23T02:02:47.715Z,90.80
2022-11-23T02:05:18.668Z,91.34
2022-11-23T02:07:49.372Z,91.13
2022-11-23T02:10:18.237Z,90.44
2022-11-23T02:12:46.489Z,90.53
2022-11-23T02:15:14.733Z,90.85
2022-11-23T02:17:44.199Z,90.74
2022-11-23T02:20:17.696Z,90.93
2022-11-23T02:23:06.745Z,90.63
2022-11-23T02:25:43.147Z,90.69
2022-11-23T02:28:15.010Z,90.48
2022-11-23T02:30:44.296Z,90.53
2022-11-23T02:33:12.033Z,91.01
2022-11-23T02:35:54.874Z,91.02
2022-11-23T02:38:25.557Z,91.03
2022-11-23T02:40:53.707Z,90.56
2022-11-23T02:43:35.702Z,90.78
2022-11-23T02:46:05.575Z,91.20
2022-11-23T02:48:33.303Z,91.45
2022-11-23T02:51:04.610Z,91.22
2022-11-23T02:53:33.259Z,91.68
2022-11-23T02:56:01.194Z,91.73
2022-11-23T02:58:28.967Z,91.65
2022-11-23T03:00:56.931Z,91.52
2022-11-23T03:03:24.821Z,90.94
2022-11-23T03:05:52.755Z,91.12
2022-11-23T03:08:20.426Z,91.71
2022-11-23T03:10:49.547Z,91.93
2022-11-23T03:13:17.244Z,91.70
2022-11-23T03:15:45.565Z,91.98
2022-11-23T03:18:13.539Z,92.50
2022-11-23T03:20:41.543Z,92.59
2022-11-23T03:23:09.221Z,92.69
2022-11-23T03:25:37.199Z,92.73
2022-11-23T03:28:06.517Z,91.97
2022-11-23T03:30:35.339Z,92.08
2022-11-23T03:33:05.411Z,91.96
2022-11-23T03:35:33.421Z,91.78
2022-11-23T03:38:18.770Z,91.56
2022-11-23T03:40:47.736Z,92.18
2022-11-23T03:43:26.579Z,92.31
2022-11-23T03:45:54.570Z,91.93
2022-11-23T03:48:23.582Z,91.89
2022-11-23T03:50:52.184Z,91.74
2022-11-23T03:53:19.932Z,91.53
2022-11-23T03:55:48.192Z,91.64
2022-11-23T03:58:16.338Z,91.87
2022-11-23T04:00:44.431Z,91.89
2022-11-23T04:03:15.532Z,91.89
2022-11-23T04:06:02.500Z,91.66
2022-11-23T04:08:48.463Z,92.01
2022-11-23T04:11:24.282Z,91.75
2022-11-23T04:13:52.003Z,91.78
2022-11-23T04:16:20.728Z,92.02
2022-11-23T04:18:48.620Z,91.85
2022-11-23T04:21:17.424Z,92.15
2022-11-23T04:23:45.423Z,92.20
2022-11-23T04:26:15.704Z,92.18
2022-11-23T04:28:46.310Z,91.63
2022-11-23T04:31:14.816Z,92.19
2022-11-23T04:33:58.755Z,91.86
2022-11-23T04:36:28.139Z,91.93
2022-11-23T04:38:56.330Z,91.79
2022-11-23T04:41:34.290Z,91.72
2022-11-23T04:44:04.265Z,92.42
2022-11-23T04:46:32.325Z,92.18
2022-11-23T04:49:01.279Z,92.37
2022-11-23T04:51:29.382Z,91.71
2022-11-23T04:53:57.284Z,91.59
2022-11-23T04:56:28.632Z,91.92
2022-11-23T04:58:56.418Z,91.94
2022-11-23T05:01:25.350Z,91.81
2022-11-23T05:04:33.212Z,91.64
2022-11-23T05:07:02.064Z,91.65
2022-11-23T05:09:32.416Z,92.09
2022-11-23T05:12:11.614Z,92.02
2022-11-23T05:14:42.957Z,92.32
2022-11-23T05:17:12.379Z,92.53
2022-11-23T05:19:42.031Z,92.56
2022-11-23T05:22:10.109Z,92.42
2022-11-23T05:24:41.264Z,92.17
2022-11-23T05:27:12.008Z,91.43
2022-11-23T05:29:40.107Z,91.34
2022-11-23T05:32:08.990Z,91.31
2022-11-23T05:34:36.703Z,91.18
2022-11-23T05:37:05.904Z,91.04
2022-11-23T05:39:34.351Z,91.22
2022-11-23T05:42:02.647Z,91.60
2022-11-23T05:44:35.038Z,91.54
2022-11-23T05:47:05.500Z,91.61
2022-11-23T05:49:35.359Z,91.96
2022-11-23T05:52:06.201Z,92.10
2022-11-23T05:54:36.241Z,92.14
2022-11-23T05:57:09.218Z,92.14
2022-11-23T05:59:39.889Z,92.29
2022-11-23T06:02:11.779Z,92.13
2022-11-23T06:04:39.546Z,92.23
2022-11-23T06:07:11.765Z,92.26
2022-11-23T06:10:09.072Z,91.98
2022-11-23T06:12:41.031Z,91.70
2022-11-23T06:15:13.720Z,91.40
2022-11-23T06:17:42.399Z,91.76
2022-11-23T06:20:15.868Z,91.84
2022-11-23T06:22:53.853Z,91.14
2022-11-23T06:25:23.916Z,91.52
2022-11-23T06:28:01.428Z,91.14
2022-11-23T06:30:37.003Z,90.50
2022-11-23T06:33:08.205Z,90.77
2022-11-23T06:35:43.016Z,90.76
2022-11-23T06:38:11.563Z,90.90
2022-11-23T06:40:39.964Z,91.50
2022-11-23T06:43:09.059Z,91.23
2022-11-23T06:45:43.136Z,91.30
2022-11-23T06:48:15.087Z,91.36
2022-11-23T06:50:46.891Z,91.43
2022-11-23T06:53:16.680Z,91.43
2022-11-23T06:55:49.021Z,91.64
2022-11-23T06:58:19.655Z,91.47
2022-11-23T07:00:47.580Z,91.19
2022-11-23T07:03:24.197Z,91.14
2022-11-23T07:06:10.840Z,91.33
2022-11-23T07:08:43.391Z,91.17
2022-11-23T07:11:33.918Z,91.31
2022-11-23T07:14:01.979Z,91.64
2022-11-23T07:16:31.402Z,91.83
2022-11-23T07:18:59.518Z,91.54
2022-11-23T07:21:27.320Z,91.40
2022-11-23T07:23:55.864Z,91.39
2022-11-23T07:26:23.650Z,91.22
2022-11-23T07:28:51.543Z,91.53
2022-11-23T07:31:19.691Z,91.37
2022-11-23T07:33:47.922Z,91.63
2022-11-23T07:36:15.693Z,91.59
2022-11-23T07:38:45.978Z,91.04
2022-11-23T07:41:16.251Z,90.84
2022-11-23T07:44:07.200Z,91.02
2022-11-23T07:46:35.057Z,90.99
2022-11-23T07:49:03.168Z,90.65
2022-11-23T07:51:31.076Z,90.07
2022-11-23T07:53:59.030Z,89.97
2022-11-23T07:56:26.700Z,90.17
2022-11-23T07:58:54.607Z,90.19
2022-11-23T08:01:22.391Z,89.38
2022-11-23T08:03:50.455Z,89.19
2022-11-23T08:06:18.290Z,89.21
2022-11-23T08:08:46.380Z,89.41
2022-11-23T08:11:20.761Z,89.10
2022-11-23T08:13:49.001Z,88.83
2022-11-23T08:16:16.715Z,88.68
2022-11-23T08:18:44.699Z,88.02
2022-11-23T08:21:12.555Z,87.99
2022-11-23T08:23:40.540Z,87.92
2022-11-23T08:26:13.447Z,87.68
2022-11-23T08:28:42.265Z,87.67
2022-11-23T08:31:11.734Z,88.11
2022-11-23T08:33:40.719Z,87.30
2022-11-23T08:36:09.095Z,87.03
2022-11-23T08:38:37.181Z,87.26
2022-11-23T08:41:05.713Z,87.75
2022-11-23T08:43:34.916Z,87.34
2022-11-23T08:46:07.937Z,87.37
2022-11-23T08:48:38.832Z,87.12
2022-11-23T08:51:07.152Z,87.38
2022-11-23T08:53:35.174Z,86.99
2022-11-23T08:56:07.497Z,87.00
2022-11-23T08:58:36.902Z,86.78
2022-11-23T09:01:09.570Z,86.47
2022-11-23T09:03:37.764Z,86.05
2022-11-23T09:06:05.608Z,86.66
2022-11-23T09:08:33.882Z,86.27
2022-11-23T09:11:02.835Z,85.37
2022-11-23T09:13:31.393Z,85.48
2022-11-23T09:16:03.484Z,85.41
2022-11-23T09:18:33.251Z,85.40
2022-11-23T09:21:04.381Z,85.43
2022-11-23T09:23:32.862Z,84.93
2022-11-23T09:26:01.610Z,84.94
2022-11-23T09:28:29.934Z,85.32
2022-11-23T09:30:57.995Z,85.46
2022-11-23T09:33:26.305Z,84.75
2022-11-23T09:35:59.253Z,84.70
2022-11-23T09:38:51.486Z,84.23
2022-11-23T09:41:37.645Z,83.54
2022-11-23T09:44:14.056Z,83.48
2022-11-23T09:47:19.346Z,83.00
2022-11-23T09:50:11.392Z,82.68
2022-11-23T09:52:44.173Z,82.20
2022-11-23T09:55:41.934Z,82.57
2022-11-23T09:58:16.108Z,82.89
2022-11-23T10:01:02.015Z,82.81
2022-11-23T10:03:34.470Z,82.62
2022-11-23T10:06:06.462Z,82.41
2022-11-23T10:09:24.826Z,82.56
2022-11-23T10:12:16.701Z,82.65
2022-11-23T10:14:59.736Z,82.95
2022-11-23T10:17:43.297Z,82.54
2022-11-23T10:20:17.414Z,82.31
2022-11-23T10:23:01.414Z,82.51
2022-11-23T10:25:46.733Z,82.98
2022-11-23T10:28:18.327Z,82.91
2022-11-23T10:30:53.823Z,82.74
2022-11-23T10:33:30.124Z,82.66
2022-11-23T10:35:58.356Z,82.57
2022-11-23T10:38:28.138Z,83.05
2022-11-23T10:41:15.502Z,82.82
2022-11-23T10:44:01.002Z,82.95
2022-11-23T10:46:34.917Z,82.81
2022-11-23T10:49:23.091Z,82.46
2022-11-23T10:52:17.891Z,82.67
2022-11-23T10:54:45.759Z,83.01
2022-11-23T10:57:33.656Z,83.36
2022-11-23T11:00:15.836Z,83.21
2022-11-23T11:02:49.593Z,83.14
2022-11-23T11:08:27.976Z,82.51
2022-11-23T11:11:06.535Z,82.70
2022-11-23T11:13:42.747Z,81.93
2022-11-23T11:16:26.138Z,81.16
2022-11-23T11:18:54.076Z,81.58
2022-11-23T11:21:35.176Z,81.02
2022-11-23T11:24:04.179Z,80.66
2022-11-23T11:26:35.147Z,80.60
2022-11-23T11:29:06.534Z,80.82
2022-11-23T11:31:50.414Z,81.24
2022-11-23T11:34:24.161Z,81.48
2022-11-23T11:37:03.489Z,81.95
2022-11-23T11:39:42.166Z,82.13
2022-11-23T11:42:21.104Z,81.71
2022-11-23T11:44:53.028Z,81.72
2022-11-23T11:47:32.285Z,81.17
2022-11-23T11:50:06.110Z,81.40
2022-11-23T11:52:39.925Z,80.77
2022-11-23T11:55:20.104Z,81.13
2022-11-23T11:58:08.489Z,81.10
2022-11-23T12:00:43.541Z,80.35
2022-11-23T12:03:24.977Z,80.74
2022-11-23T12:05:55.975Z,80.90
2022-11-23T12:08:39.392Z,80.78
2022-11-23T12:11:11.567Z,80.94
2022-11-23T12:13:43.009Z,81.35
2022-11-23T12:16:30.873Z,81.04
2022-11-23T12:19:16.922Z,80.89
2022-11-23T12:22:03.937Z,80.71
2022-11-23T12:25:11.494Z,81.01
2022-11-23T12:27:59.174Z,81.55
2022-11-23T12:30:52.487Z,81.81
2022-11-23T12:33:20.218Z,81.14
2022-11-23T12:36:06.405Z,81.61
2022-11-23T12:39:24.461Z,81.58
2022-11-23T12:42:41.769Z,81.76
2022-11-23T12:45:39.454Z,82.08
2022-11-23T12:48:31.650Z,82.04
2022-11-23T12:51:40.650Z,82.06
2022-11-23T12:54:44.595Z,81.63
2022-11-23T12:57:22.502Z,81.64
2022-11-23T13:00:01.139Z,81.93
2022-11-23T13:02:50.086Z,81.92
2022-11-23T13:05:39.745Z,81.84
2022-11-23T13:08:28.408Z,82.31
2022-11-23T13:11:23.211Z,82.72
2022-11-23T13:14:16.413Z,83.08
2022-11-23T13:16:54.971Z,83.19
2022-11-23T13:19:41.305Z,83.67
2022-11-23T13:22:19.017Z,83.81
2022-11-23T13:25:08.485Z,84.14
2022-11-23T13:27:49.686Z,84.49
2022-11-23T13:33:23.678Z,84.62
2022-11-23T13:36:03.551Z,84.80
2022-11-23T13:38:43.584Z,84.63
2022-11-23T13:41:42.668Z,85.26
2022-11-23T13:44:24.580Z,85.51
2022-11-23T13:47:14.820Z,85.32
2022-11-23T13:49:45.948Z,85.16
2022-11-23T13:52:23.845Z,85.23
2022-11-23T13:55:08.968Z,85.56
2022-11-23T13:57:42.698Z,86.75
2022-11-23T14:00:46.721Z,87.29
2022-11-23T14:03:42.808Z,86.07
2022-11-23T14:06:23.557Z,85.75
2022-11-23T14:09:17.662Z,85.71
2022-11-23T14:11:54.279Z,85.65
2022-11-23T14:14:26.527Z,85.81
2022-11-23T14:17:27.319Z,86.03
2022-11-23T14:20:00.968Z,86.02
2022-11-23T14:22:58.025Z,85.86
2022-11-23T14:25:45.067Z,86.20
2022-11-23T14:28:47.015Z,86.21
2022-11-23T14:31:17.671Z,86.68
2022-11-23T14:33:59.131Z,86.63
2022-11-23T14:36:35.755Z,86.70
2022-11-23T14:39:38.610Z,86.77
2022-11-23T14:42:17.151Z,87.24
2022-11-23T14:44:45.808Z,86.80
2022-11-23T14:47:13.816Z,87.06
2022-11-23T14:49:51.697Z,86.99
2022-11-23T14:52:26.439Z,86.91
2022-11-23T14:54:57.373Z,86.65
2022-11-23T14:57:29.173Z,86.84
2022-11-23T15:00:00.622Z,86.83
2022-11-23T15:02:38.326Z,86.91
2022-11-23T15:05:24.466Z,87.15
2022-11-23T15:08:30.251Z,87.24
2022-11-23T15:11:06.952Z,87.67
2022-11-23T15:13:49.640Z,87.53
2022-11-23T15:16:20.399Z,87.78
2022-11-23T15:18:49.359Z,88.05
2022-11-23T15:21:27.207Z,88.48
2022-11-23T15:23:58.308Z,88.82
2022-11-23T15:29:37.034Z,89.22
2022-11-23T15:32:30.740Z,89.76
2022-11-23T15:35:01.672Z,90.18
2022-11-23T15:37:31.374Z,89.57
2022-11-23T15:39:59.521Z,89.33
2022-11-23T15:42:28.664Z,89.18
2022-11-23T15:44:56.648Z,88.85
2022-11-23T15:47:28.147Z,88.85
2022-11-23T15:50:04.048Z,89.29
2022-11-23T15:52:37.333Z,89.27
2022-11-23T15:55:14.453Z,89.08
2022-11-23T15:57:42.967Z,88.98
2022-11-23T16:00:24.937Z,88.76
2022-11-23T16:02:53.528Z,89.18
2022-11-23T16:05:23.720Z,89.05
2022-11-23T16:08:02.586Z,88.61
2022-11-23T16:10:37.526Z,88.71
2022-11-23T16:13:08.818Z,88.47
2022-11-23T16:15:44.271Z,88.63
2022-11-23T16:18:18.475Z,88.69
2022-11-23T16:20:49.236Z,88.55
2022-11-23T16:23:55.436Z,88.64
2022-11-23T16:26:33.500Z,89.01
2022-11-23T16:29:02.430Z,89.21
2022-11-23T16:31:51.711Z,88.99
2022-11-23T16:34:20.190Z,88.64
2022-11-23T16:36:48.425Z,88.54
2022-11-23T16:39:16.569Z,88.76
2022-11-23T16:41:44.366Z,88.40
2022-11-23T16:44:12.693Z,88.49
2022-11-23T16:46:43.426Z,88.53
2022-11-23T16:49:21.601Z,88.51
2022-11-23T16:51:56.496Z,88.47
2022-11-23T16:54:25.746Z,88.84
2022-11-23T16:56:53.975Z,88.76
2022-11-23T16:59:23.859Z,88.86
2022-11-23T17:01:56.964Z,89.06
2022-11-23T17:04:26.523Z,89.11
2022-11-23T17:06:54.426Z,89.20
2022-11-23T17:09:22.410Z,89.43
2022-11-23T17:11:50.962Z,89.03
2022-11-23T17:14:20.662Z,88.48
2022-11-23T17:16:49.889Z,88.60
2022-11-23T17:19:20.044Z,87.92
2022-11-23T17:21:47.982Z,87.94
2022-11-23T17:24:16.009Z,88.09
2022-11-23T17:26:46.536Z,88.38
2022-11-23T17:29:19.083Z,88.47
2022-11-23T17:31:48.044Z,88.76
2022-11-23T17:34:16.535Z,88.96
2022-11-23T17:36:46.288Z,89.02
2022-11-23T17:39:24.173Z,89.22
2022-11-23T17:41:52.510Z,89.09
2022-11-23T17:44:20.973Z,89.21
2022-11-23T17:46:49.891Z,89.81
2022-11-23T17:49:27.520Z,89.19
2022-11-23T17:51:56.249Z,89.53
2022-11-23T17:54:24.959Z,89.62
2022-11-23T17:56:52.762Z,88.90
2022-11-23T17:59:20.830Z,89.02
2022-11-23T18:01:49.139Z,89.17
2022-11-23T18:04:17.175Z,89.16
2022-11-23T18:06:44.990Z,89.22
2022-11-23T18:09:13.092Z,89.22
2022-11-23T18:11:40.838Z,88.94
2022-11-23T18:14:08.435Z,88.56
2022-11-23T18:16:36.424Z,88.40
2022-11-23T18:19:04.727Z,88.42
2022-11-23T18:21:32.753Z,88.68
2022-11-23T18:24:04.456Z,88.64
2022-11-23T18:26:33.044Z,88.57
2022-11-23T18:29:00.825Z,89.24
2022-11-23T18:31:29.055Z,89.54
2022-11-23T18:33:56.931Z,89.62
2022-11-23T18:36:25.181Z,89.48
2022-11-23T18:38:53.084Z,89.00
2022-11-23T18:41:22.647Z,88.75
2022-11-23T18:43:50.584Z,89.21
2022-11-23T18:46:21.759Z,89.15
2022-11-23T18:48:51.054Z,89.46
2022-11-23T18:51:19.826Z,89.94
2022-11-23T18:53:48.149Z,89.58
2022-11-23T18:56:16.563Z,90.00
2022-11-23T18:58:45.867Z,89.67
2022-11-23T19:01:19.558Z,89.73
2022-11-23T19:03:50.346Z,89.82
2022-11-23T19:06:20.790Z,89.70
2022-11-23T19:08:50.924Z,89.82
2022-11-23T19:11:21.414Z,89.78
2022-11-23T19:13:51.727Z,89.96
2022-11-23T19:16:23.838Z,89.72
2022-11-23T19:18:59.560Z,89.67
2022-11-23T19:21:31.071Z,90.12
2022-11-23T19:24:00.390Z,89.90
2022-11-23T19:26:30.119Z,89.16
2022-11-23T19:28:59.039Z,89.28
2022-11-23T19:31:29.873Z,89.04
2022-11-23T19:34:02.375Z,89.17
2022-11-23T19:36:33.273Z,89.12
2022-11-23T19:39:00.977Z,89.11
2022-11-23T19:41:30.805Z,88.61
2022-11-23T19:44:00.241Z,87.95
2022-11-23T19:46:30.512Z,88.12
2022-11-23T19:48:59.283Z,88.70
2022-11-23T19:51:28.243Z,88.21
2022-11-23T19:54:01.879Z,87.73
2022-11-23T19:56:30.225Z,88.34
2022-11-23T19:59:00.972Z,88.07
2022-11-23T20:01:32.156Z,88.50
2022-11-23T20:04:09.602Z,88.69
2022-11-23T20:06:42.526Z,88.85
2022-11-23T20:09:13.483Z,89.02
2022-11-23T20:11:42.420Z,88.64
2022-11-23T20:14:13.275Z,89.00
2022-11-23T20:16:41.403Z,89.53
2022-11-23T20:19:10.346Z,89.59
2022-11-23T20:21:38.684Z,88.92
2022-11-23T20:24:13.035Z,89.25
2022-11-23T20:26:42.312Z,89.23
2022-11-23T20:29:10.740Z,89.22
2022-11-23T20:31:39.310Z,89.36
2022-11-23T20:34:09.461Z,88.87
2022-11-23T20:36:39.149Z,89.06
2022-11-23T20:39:09.894Z,89.07
2022-11-23T20:41:38.837Z,89.01
2022-11-23T20:44:12.021Z,89.03
2022-11-23T20:49:30.106Z,89.12
2022-11-23T20:51:59.562Z,89.58
2022-11-23T20:54:27.312Z,89.79
2022-11-23T20:56:55.731Z,88.81
2022-11-23T20:59:24.414Z,88.80
2022-11-23T21:01:52.857Z,88.88
2022-11-23T21:04:20.596Z,88.73
2022-11-23T21:06:48.642Z,88.80
2022-11-23T21:09:17.171Z,88.74
2022-11-23T21:12:03.955Z,88.56
2022-11-23T21:14:33.090Z,88.45
2022-11-23T21:17:01.471Z,88.30
2022-11-23T21:19:33.918Z,87.95
2022-11-23T21:22:10.971Z,88.34
2022-11-23T21:24:39.443Z,87.96
2022-11-23T21:27:12.081Z,87.83
2022-11-23T21:29:40.545Z,88.17
2022-11-23T21:32:14.763Z,87.93
2022-11-23T21:34:43.024Z,88.00
2022-11-23T21:37:12.648Z,88.27
2022-11-23T21:39:41.543Z,88.17
2022-11-23T21:42:10.165Z,88.27
2022-11-23T21:44:37.931Z,87.93
2022-11-23T21:47:06.061Z,87.46
2022-11-23T21:49:33.870Z,87.50
2022-11-23T21:52:01.896Z,87.89
2022-11-23T21:54:29.613Z,87.91
2022-11-23T21:56:57.772Z,87.70
2022-11-23T21:59:25.709Z,87.72
2022-11-23T22:08:13.643Z,87.86
2022-11-23T22:10:37.951Z,88.13
2022-11-23T22:13:06.013Z,88.38
2022-11-23T22:15:33.952Z,88.38
2022-11-23T22:18:02.049Z,88.34
2022-11-23T22:20:29.976Z,88.45
2022-11-23T22:22:58.263Z,88.34
2022-11-23T22:25:26.281Z,88.68
2022-11-23T22:27:54.438Z,88.12
2022-11-23T22:30:22.652Z,88.00
2022-11-23T22:32:50.799Z,87.72
2022-11-23T22:35:18.866Z,87.89
2022-11-23T22:37:47.548Z,87.28
2022-11-23T22:40:15.627Z,87.66
2022-11-23T22:42:44.265Z,87.73
2022-11-23T22:45:12.330Z,87.54
2022-11-23T22:47:40.385Z,87.21
2022-11-23T22:50:08.643Z,87.36
2022-11-23T22:52:36.728Z,87.58
2022-11-23T22:55:04.918Z,87.58
2022-11-23T22:57:33.209Z,87.59
2022-11-23T23:00:00.994Z,86.98
2022-11-23T23:02:30.233Z,87.58
2022-11-23T23:04:58.384Z,87.35
2022-11-23T23:07:26.675Z,87.34
2022-11-23T23:09:54.568Z,87.77
2022-11-23T23:12:22.647Z,87.22
2022-11-23T23:14:50.640Z,87.31
2022-11-23T23:17:18.744Z,87.83
2022-11-23T23:19:47.064Z,87.80
2022-11-23T23:22:15.225Z,87.37
2022-11-23T23:24:43.130Z,87.81
2022-11-23T23:27:11.179Z,87.80
2022-11-23T23:29:39.017Z,88.15
2022-11-23T23:32:07.163Z,87.71
2022-11-23T23:34:35.285Z,88.00
2022-11-23T23:37:03.506Z,87.58
2022-11-23T23:39:31.334Z,87.73
2022-11-23T23:41:59.387Z,87.35
2022-11-23T23:44:27.318Z,87.66
2022-11-23T23:46:55.414Z,87.65
2022-11-23T23:49:24.639Z,87.30
2022-11-23T23:51:52.778Z,87.71
2022-11-23T23:54:20.546Z,87.67
2022-11-23T23:56:48.667Z,87.98
2022-11-23T23:59:16.543Z,87.45
